sensor_id;sensor_type;location;lat;lon;timestamp;temperature;humidity
68378;DHT22;55322;48.146;11.516;2022-12-18T00:01:40;-4.78;96.16
68378;DHT22;55322;48.146;11.516;2022-12-18T00:04:07;-4.81;96.23
68378;DHT22;55322;48.146;11.516;2022-12-18T00:06:38;-4.84;96.35
68378;DHT22;55322;48.146;11.516;2022-12-18T00:09:03;-4.80;96.44
68378;DHT22;55322;48.146;11.516;2022-12-18T00:11:30;-4.82;96.49
68378;DHT22;55322;48.146;11.516;2022-12-18T00:13:57;-4.89;96.58
68378;DHT22;55322;48.146;11.516;2022-12-18T00:16:25;-5.03;97.03
68378;DHT22;55322;48.146;11.516;2022-12-18T00:18:53;-5.08;97.61
68378;DHT22;55322;48.146;11.516;2022-12-18T00:21:19;-5.01;97.66
68378;DHT22;55322;48.146;11.516;2022-12-18T00:23:46;-5.02;97.85
68378;DHT22;55322;48.146;11.516;2022-12-18T00:26:15;-5.03;97.85
68378;DHT22;55322;48.146;11.516;2022-12-18T00:28:41;-4.98;97.98
68378;DHT22;55322;48.146;11.516;2022-12-18T00:31:10;-5.02;97.82
68378;DHT22;55322;48.146;11.516;2022-12-18T00:33:36;-4.95;97.93
68378;DHT22;55322;48.146;11.516;2022-12-18T00:36:21;-4.92;97.60
68378;DHT22;55322;48.146;11.516;2022-12-18T00:38:47;-5.05;97.44
68378;DHT22;55322;48.146;11.516;2022-12-18T00:41:14;-4.98;97.57
68378;DHT22;55322;48.146;11.516;2022-12-18T00:44:00;-5.08;97.57
68378;DHT22;55322;48.146;11.516;2022-12-18T00:46:25;-5.02;97.79
68378;DHT22;55322;48.146;11.516;2022-12-18T00:48:51;-5.11;97.72
68378;DHT22;55322;48.146;11.516;2022-12-18T00:51:16;-5.02;97.74
68378;DHT22;55322;48.146;11.516;2022-12-18T00:53:41;-5.09;97.70
68378;DHT22;55322;48.146;11.516;2022-12-18T00:56:06;-5.08;98.05
68378;DHT22;55322;48.146;11.516;2022-12-18T00:58:32;-5.03;97.95
68378;DHT22;55322;48.146;11.516;2022-12-18T01:01:00;-5.06;97.80
68378;DHT22;55322;48.146;11.516;2022-12-18T01:03:25;-5.08;98.10
68378;DHT22;55322;48.146;11.516;2022-12-18T01:05:50;-5.05;97.88
68378;DHT22;55322;48.146;11.516;2022-12-18T01:08:16;-5.15;97.96
68378;DHT22;55322;48.146;11.516;2022-12-18T01:10:41;-5.08;98.02
68378;DHT22;55322;48.146;11.516;2022-12-18T01:13:06;-5.19;98.11
68378;DHT22;55322;48.146;11.516;2022-12-18T01:15:32;-5.17;98.24
68378;DHT22;55322;48.146;11.516;2022-12-18T01:17:57;-5.19;98.49
68378;DHT22;55322;48.146;11.516;2022-12-18T01:20:22;-5.17;98.47
68378;DHT22;55322;48.146;11.516;2022-12-18T01:22:48;-5.12;98.13
68378;DHT22;55322;48.146;11.516;2022-12-18T01:25:13;-5.09;97.73
68378;DHT22;55322;48.146;11.516;2022-12-18T01:27:38;-5.08;97.82
68378;DHT22;55322;48.146;11.516;2022-12-18T01:30:04;-5.08;97.83
68378;DHT22;55322;48.146;11.516;2022-12-18T01:32:31;-5.02;97.62
68378;DHT22;55322;48.146;11.516;2022-12-18T01:34:56;-5.02;97.60
68378;DHT22;55322;48.146;11.516;2022-12-18T01:37:21;-5.06;97.78
68378;DHT22;55322;48.146;11.516;2022-12-18T01:39:47;-5.01;97.77
68378;DHT22;55322;48.146;11.516;2022-12-18T01:42:14;-4.99;97.54
68378;DHT22;55322;48.146;11.516;2022-12-18T01:45:05;-4.99;97.34
68378;DHT22;55322;48.146;11.516;2022-12-18T01:47:48;-4.89;97.21
68378;DHT22;55322;48.146;11.516;2022-12-18T01:52:45;-4.91;96.80
68378;DHT22;55322;48.146;11.516;2022-12-18T01:55:12;-4.99;96.74
68378;DHT22;55322;48.146;11.516;2022-12-18T01:57:39;-4.96;96.87
68378;DHT22;55322;48.146;11.516;2022-12-18T02:00:12;-4.92;96.93
68378;DHT22;55322;48.146;11.516;2022-12-18T02:02:39;-4.95;96.61
68378;DHT22;55322;48.146;11.516;2022-12-18T02:05:05;-5.02;96.53
68378;DHT22;55322;48.146;11.516;2022-12-18T02:07:49;-5.08;96.95
68378;DHT22;55322;48.146;11.516;2022-12-18T02:10:31;-5.20;97.07
68378;DHT22;55322;48.146;11.516;2022-12-18T02:13:12;-5.15;97.18
68378;DHT22;55322;48.146;11.516;2022-12-18T02:15:43;-5.17;97.39
68378;DHT22;55322;48.146;11.516;2022-12-18T02:18:17;-5.11;97.08
68378;DHT22;55322;48.146;11.516;2022-12-18T02:20:48;-5.15;97.09
68378;DHT22;55322;48.146;11.516;2022-12-18T02:26:25;-5.06;97.19
68378;DHT22;55322;48.146;11.516;2022-12-18T02:29:09;-5.13;97.57
68378;DHT22;55322;48.146;11.516;2022-12-18T02:31:43;-5.08;97.47
68378;DHT22;55322;48.146;11.516;2022-12-18T02:34:10;-5.08;97.24
68378;DHT22;55322;48.146;11.516;2022-12-18T02:36:40;-5.11;97.30
68378;DHT22;55322;48.146;11.516;2022-12-18T02:39:10;-5.17;97.38
68378;DHT22;55322;48.146;11.516;2022-12-18T02:41:36;-5.15;97.53
68378;DHT22;55322;48.146;11.516;2022-12-18T02:44:08;-5.16;97.48
68378;DHT22;55322;48.146;11.516;2022-12-18T02:46:38;-5.08;97.20
68378;DHT22;55322;48.146;11.516;2022-12-18T02:57:46;-5.06;97.00
68378;DHT22;55322;48.146;11.516;2022-12-18T03:00:28;-5.15;97.36
68378;DHT22;55322;48.146;11.516;2022-12-18T03:03:07;-5.17;97.51
68378;DHT22;55322;48.146;11.516;2022-12-18T03:05:50;-5.16;97.56
68378;DHT22;55322;48.146;11.516;2022-12-18T03:08:24;-5.09;97.59
68378;DHT22;55322;48.146;11.516;2022-12-18T03:11:05;-5.08;97.62
68378;DHT22;55322;48.146;11.516;2022-12-18T03:13:45;-5.05;97.61
68378;DHT22;55322;48.146;11.516;2022-12-18T03:16:15;-5.02;97.74
68378;DHT22;55322;48.146;11.516;2022-12-18T03:18:47;-4.99;97.40
68378;DHT22;55322;48.146;11.516;2022-12-18T03:21:14;-5.11;97.19
68378;DHT22;55322;48.146;11.516;2022-12-18T03:23:46;-5.09;97.30
68378;DHT22;55322;48.146;11.516;2022-12-18T03:26:15;-5.11;97.28
68378;DHT22;55322;48.146;11.516;2022-12-18T03:28:50;-5.08;97.19
68378;DHT22;55322;48.146;11.516;2022-12-18T03:31:17;-5.03;96.55
68378;DHT22;55322;48.146;11.516;2022-12-18T03:33:57;-5.17;96.90
68378;DHT22;55322;48.146;11.516;2022-12-18T03:36:23;-5.17;97.26
68378;DHT22;55322;48.146;11.516;2022-12-18T03:38:49;-5.08;96.92
68378;DHT22;55322;48.146;11.516;2022-12-18T03:49:26;-5.05;96.86
68378;DHT22;55322;48.146;11.516;2022-12-18T03:52:06;-5.12;96.68
68378;DHT22;55322;48.146;11.516;2022-12-18T03:54:33;-5.06;96.96
68378;DHT22;55322;48.146;11.516;2022-12-18T03:57:29;-5.06;96.93
68378;DHT22;55322;48.146;11.516;2022-12-18T03:59:59;-5.06;96.75
68378;DHT22;55322;48.146;11.516;2022-12-18T04:02:25;-5.02;97.13
68378;DHT22;55322;48.146;11.516;2022-12-18T04:04:52;-4.99;96.93
68378;DHT22;55322;48.146;11.516;2022-12-18T04:07:19;-5.01;96.58
68378;DHT22;55322;48.146;11.516;2022-12-18T04:09:48;-5.01;96.54
68378;DHT22;55322;48.146;11.516;2022-12-18T04:12:14;-4.96;96.01
68378;DHT22;55322;48.146;11.516;2022-12-18T04:14:39;-4.99;95.99
68378;DHT22;55322;48.146;11.516;2022-12-18T04:17:04;-4.95;96.29
68378;DHT22;55322;48.146;11.516;2022-12-18T04:19:30;-4.93;96.44
68378;DHT22;55322;48.146;11.516;2022-12-18T04:21:55;-4.95;96.13
68378;DHT22;55322;48.146;11.516;2022-12-18T04:24:20;-4.95;95.96
68378;DHT22;55322;48.146;11.516;2022-12-18T04:26:46;-4.93;96.34
68378;DHT22;55322;48.146;11.516;2022-12-18T04:29:11;-4.99;96.37
68378;DHT22;55322;48.146;11.516;2022-12-18T04:31:36;-4.98;96.22
68378;DHT22;55322;48.146;11.516;2022-12-18T04:34:02;-5.01;96.16
68378;DHT22;55322;48.146;11.516;2022-12-18T04:36:27;-4.95;96.30
68378;DHT22;55322;48.146;11.516;2022-12-18T04:38:53;-4.98;96.28
68378;DHT22;55322;48.146;11.516;2022-12-18T04:41:18;-4.96;96.40
68378;DHT22;55322;48.146;11.516;2022-12-18T04:43:43;-4.98;96.11
68378;DHT22;55322;48.146;11.516;2022-12-18T04:46:09;-4.96;95.88
68378;DHT22;55322;48.146;11.516;2022-12-18T04:48:35;-4.98;95.86
68378;DHT22;55322;48.146;11.516;2022-12-18T04:51:00;-5.05;95.93
68378;DHT22;55322;48.146;11.516;2022-12-18T04:53:26;-5.01;96.35
68378;DHT22;55322;48.146;11.516;2022-12-18T04:56:02;-5.01;95.84
68378;DHT22;55322;48.146;11.516;2022-12-18T04:58:27;-5.03;95.84
68378;DHT22;55322;48.146;11.516;2022-12-18T05:00:53;-5.01;96.08
68378;DHT22;55322;48.146;11.516;2022-12-18T05:03:18;-5.02;95.99
68378;DHT22;55322;48.146;11.516;2022-12-18T05:05:43;-4.96;96.01
68378;DHT22;55322;48.146;11.516;2022-12-18T05:08:08;-4.89;95.66
68378;DHT22;55322;48.146;11.516;2022-12-18T05:10:34;-4.96;95.64
68378;DHT22;55322;48.146;11.516;2022-12-18T05:12:59;-5.06;95.48
68378;DHT22;55322;48.146;11.516;2022-12-18T05:15:31;-4.98;95.68
68378;DHT22;55322;48.146;11.516;2022-12-18T05:17:58;-4.89;95.17
68378;DHT22;55322;48.146;11.516;2022-12-18T05:20:23;-4.89;95.44
68378;DHT22;55322;48.146;11.516;2022-12-18T05:22:50;-4.88;95.13
68378;DHT22;55322;48.146;11.516;2022-12-18T05:25:15;-4.96;94.79
68378;DHT22;55322;48.146;11.516;2022-12-18T05:27:41;-4.92;94.94
68378;DHT22;55322;48.146;11.516;2022-12-18T05:30:07;-4.91;94.86
68378;DHT22;55322;48.146;11.516;2022-12-18T05:32:33;-4.93;95.04
68378;DHT22;55322;48.146;11.516;2022-12-18T05:34:58;-4.96;94.91
68378;DHT22;55322;48.146;11.516;2022-12-18T05:37:23;-4.96;95.35
68378;DHT22;55322;48.146;11.516;2022-12-18T05:39:49;-4.96;95.25
68378;DHT22;55322;48.146;11.516;2022-12-18T05:42:14;-4.96;95.06
68378;DHT22;55322;48.146;11.516;2022-12-18T05:44:39;-4.93;94.94
68378;DHT22;55322;48.146;11.516;2022-12-18T05:47:05;-4.96;94.56
68378;DHT22;55322;48.146;11.516;2022-12-18T05:49:31;-4.91;94.78
68378;DHT22;55322;48.146;11.516;2022-12-18T05:51:56;-4.96;94.50
68378;DHT22;55322;48.146;11.516;2022-12-18T05:54:21;-4.96;94.80
68378;DHT22;55322;48.146;11.516;2022-12-18T05:56:47;-4.99;94.32
68378;DHT22;55322;48.146;11.516;2022-12-18T05:59:12;-4.96;94.58
68378;DHT22;55322;48.146;11.516;2022-12-18T06:01:37;-4.99;94.42
68378;DHT22;55322;48.146;11.516;2022-12-18T06:04:03;-5.06;94.70
68378;DHT22;55322;48.146;11.516;2022-12-18T06:06:28;-5.06;94.62
68378;DHT22;55322;48.146;11.516;2022-12-18T06:08:54;-5.05;94.61
68378;DHT22;55322;48.146;11.516;2022-12-18T06:11:23;-4.99;94.11
68378;DHT22;55322;48.146;11.516;2022-12-18T06:13:55;-5.08;94.26
68378;DHT22;55322;48.146;11.516;2022-12-18T06:16:21;-5.09;94.10
68378;DHT22;55322;48.146;11.516;2022-12-18T06:18:46;-5.11;94.44
68378;DHT22;55322;48.146;11.516;2022-12-18T06:21:12;-5.11;94.70
68378;DHT22;55322;48.146;11.516;2022-12-18T06:23:37;-5.09;94.40
68378;DHT22;55322;48.146;11.516;2022-12-18T06:26:12;-5.01;94.61
68378;DHT22;55322;48.146;11.516;2022-12-18T06:28:38;-5.08;94.68
68378;DHT22;55322;48.146;11.516;2022-12-18T06:31:04;-5.05;95.01
68378;DHT22;55322;48.146;11.516;2022-12-18T06:33:30;-5.08;94.88
68378;DHT22;55322;48.146;11.516;2022-12-18T06:36:04;-5.05;94.88
68378;DHT22;55322;48.146;11.516;2022-12-18T06:38:32;-5.01;94.84
68378;DHT22;55322;48.146;11.516;2022-12-18T06:40:57;-5.09;94.75
68378;DHT22;55322;48.146;11.516;2022-12-18T06:43:22;-5.05;94.62
68378;DHT22;55322;48.146;11.516;2022-12-18T06:45:48;-5.09;94.77
68378;DHT22;55322;48.146;11.516;2022-12-18T06:48:20;-5.11;94.59
68378;DHT22;55322;48.146;11.516;2022-12-18T06:50:45;-5.11;94.61
68378;DHT22;55322;48.146;11.516;2022-12-18T06:53:11;-5.09;94.64
68378;DHT22;55322;48.146;11.516;2022-12-18T06:55:36;-5.01;94.93
68378;DHT22;55322;48.146;11.516;2022-12-18T06:58:02;-4.96;94.23
68378;DHT22;55322;48.146;11.516;2022-12-18T07:00:27;-5.03;94.02
68378;DHT22;55322;48.146;11.516;2022-12-18T07:02:52;-5.01;94.16
68378;DHT22;55322;48.146;11.516;2022-12-18T07:05:18;-5.05;93.90
68378;DHT22;55322;48.146;11.516;2022-12-18T07:07:43;-5.16;94.12
68378;DHT22;55322;48.146;11.516;2022-12-18T07:10:09;-5.23;94.35
68378;DHT22;55322;48.146;11.516;2022-12-18T07:12:34;-5.22;94.43
68378;DHT22;55322;48.146;11.516;2022-12-18T07:15:00;-5.20;94.27
68378;DHT22;55322;48.146;11.516;2022-12-18T07:17:25;-5.19;94.23
68378;DHT22;55322;48.146;11.516;2022-12-18T07:19:50;-5.08;94.33
68378;DHT22;55322;48.146;11.516;2022-12-18T07:22:16;-5.05;94.23
68378;DHT22;55322;48.146;11.516;2022-12-18T07:24:41;-5.03;94.22
68378;DHT22;55322;48.146;11.516;2022-12-18T07:27:06;-5.02;94.04
68378;DHT22;55322;48.146;11.516;2022-12-18T07:29:32;-5.05;94.67
68378;DHT22;55322;48.146;11.516;2022-12-18T07:31:57;-5.11;94.93
68378;DHT22;55322;48.146;11.516;2022-12-18T07:34:22;-5.08;94.68
68378;DHT22;55322;48.146;11.516;2022-12-18T07:36:47;-5.13;94.88
68378;DHT22;55322;48.146;11.516;2022-12-18T07:39:13;-5.13;94.71
68378;DHT22;55322;48.146;11.516;2022-12-18T07:41:38;-5.22;94.77
68378;DHT22;55322;48.146;11.516;2022-12-18T07:44:09;-5.19;94.78
68378;DHT22;55322;48.146;11.516;2022-12-18T07:46:35;-5.22;94.73
68378;DHT22;55322;48.146;11.516;2022-12-18T07:49:00;-5.06;95.27
68378;DHT22;55322;48.146;11.516;2022-12-18T07:51:26;-5.03;94.49
68378;DHT22;55322;48.146;11.516;2022-12-18T07:53:51;-5.09;94.05
68378;DHT22;55322;48.146;11.516;2022-12-18T07:56:16;-5.22;94.06
68378;DHT22;55322;48.146;11.516;2022-12-18T07:58:41;-5.22;94.37
68378;DHT22;55322;48.146;11.516;2022-12-18T08:01:11;-5.42;94.23
68378;DHT22;55322;48.146;11.516;2022-12-18T08:03:38;-5.40;94.63
68378;DHT22;55322;48.146;11.516;2022-12-18T08:06:07;-5.33;94.65
68378;DHT22;55322;48.146;11.516;2022-12-18T08:08:33;-5.40;94.62
68378;DHT22;55322;48.146;11.516;2022-12-18T08:10:59;-4.84;97.16
68378;DHT22;55322;48.146;11.516;2022-12-18T08:13:25;-5.05;93.59
68378;DHT22;55322;48.146;11.516;2022-12-18T08:16:01;-5.12;94.01
68378;DHT22;55322;48.146;11.516;2022-12-18T08:18:27;-5.16;94.15
68378;DHT22;55322;48.146;11.516;2022-12-18T08:20:53;-5.17;94.00
68378;DHT22;55322;48.146;11.516;2022-12-18T08:23:19;-5.19;93.83
68378;DHT22;55322;48.146;11.516;2022-12-18T08:25:44;-5.09;94.07
68378;DHT22;55322;48.146;11.516;2022-12-18T08:28:10;-5.16;93.75
68378;DHT22;55322;48.146;11.516;2022-12-18T08:30:35;-5.11;93.72
68378;DHT22;55322;48.146;11.516;2022-12-18T08:33:01;-5.11;94.09
68378;DHT22;55322;48.146;11.516;2022-12-18T08:35:26;-5.09;93.70
68378;DHT22;55322;48.146;11.516;2022-12-18T08:37:52;-4.96;93.85
68378;DHT22;55322;48.146;11.516;2022-12-18T08:40:17;-4.92;93.81
68378;DHT22;55322;48.146;11.516;2022-12-18T08:42:42;-4.95;92.74
68378;DHT22;55322;48.146;11.516;2022-12-18T08:45:27;-4.78;93.41
68378;DHT22;55322;48.146;11.516;2022-12-18T08:47:52;-4.91;92.61
68378;DHT22;55322;48.146;11.516;2022-12-18T08:50:17;-5.03;92.59
68378;DHT22;55322;48.146;11.516;2022-12-18T08:52:43;-4.93;93.17
68378;DHT22;55322;48.146;11.516;2022-12-18T08:55:09;-4.89;93.01
68378;DHT22;55322;48.146;11.516;2022-12-18T08:57:34;-4.95;92.33
68378;DHT22;55322;48.146;11.516;2022-12-18T09:00:00;-5.02;92.88
68378;DHT22;55322;48.146;11.516;2022-12-18T09:02:25;-5.05;93.05
68378;DHT22;55322;48.146;11.516;2022-12-18T09:04:50;-4.89;92.75
68378;DHT22;55322;48.146;11.516;2022-12-18T09:07:16;-4.85;92.79
68378;DHT22;55322;48.146;11.516;2022-12-18T09:09:41;-5.02;92.76
68378;DHT22;55322;48.146;11.516;2022-12-18T09:12:06;-5.05;93.19
68378;DHT22;55322;48.146;11.516;2022-12-18T09:14:32;-4.88;93.40
68378;DHT22;55322;48.146;11.516;2022-12-18T09:16:57;-4.82;92.69
68378;DHT22;55322;48.146;11.516;2022-12-18T09:19:22;-5.01;92.27
68378;DHT22;55322;48.146;11.516;2022-12-18T09:21:48;-4.89;92.44
68378;DHT22;55322;48.146;11.516;2022-12-18T09:24:13;-4.82;92.26
68378;DHT22;55322;48.146;11.516;2022-12-18T09:26:39;-4.87;92.24
68378;DHT22;55322;48.146;11.516;2022-12-18T09:29:04;-4.88;92.16
68378;DHT22;55322;48.146;11.516;2022-12-18T09:31:32;-4.80;92.07
68378;DHT22;55322;48.146;11.516;2022-12-18T09:33:57;-4.82;91.91
68378;DHT22;55322;48.146;11.516;2022-12-18T09:36:22;-4.74;91.88
68378;DHT22;55322;48.146;11.516;2022-12-18T09:38:48;-4.61;91.78
68378;DHT22;55322;48.146;11.516;2022-12-18T09:41:51;-4.84;90.86
68378;DHT22;55322;48.146;11.516;2022-12-18T09:44:21;-4.71;91.85
68378;DHT22;55322;48.146;11.516;2022-12-18T09:46:51;-4.71;90.89
68378;DHT22;55322;48.146;11.516;2022-12-18T09:49:21;-4.71;90.73
68378;DHT22;55322;48.146;11.516;2022-12-18T09:51:57;-4.57;90.98
68378;DHT22;55322;48.146;11.516;2022-12-18T09:54:36;-4.53;90.86
68378;DHT22;55322;48.146;11.516;2022-12-18T09:57:03;-4.50;90.68
68378;DHT22;55322;48.146;11.516;2022-12-18T09:59:35;-4.58;91.06
68378;DHT22;55322;48.146;11.516;2022-12-18T10:02:22;-4.72;91.09
68378;DHT22;55322;48.146;11.516;2022-12-18T10:05:12;-4.70;91.43
68378;DHT22;55322;48.146;11.516;2022-12-18T10:08:02;-4.78;91.24
68378;DHT22;55322;48.146;11.516;2022-12-18T10:19:04;-4.54;90.92
68378;DHT22;55322;48.146;11.516;2022-12-18T10:21:50;-4.64;90.28
68378;DHT22;55322;48.146;11.516;2022-12-18T10:24:24;-4.84;91.04
68378;DHT22;55322;48.146;11.516;2022-12-18T10:26:53;-4.85;91.32
68378;DHT22;55322;48.146;11.516;2022-12-18T10:29:21;-4.57;91.85
68378;DHT22;55322;48.146;11.516;2022-12-18T10:31:47;-4.56;90.61
68378;DHT22;55322;48.146;11.516;2022-12-18T10:34:13;-4.48;90.89
68378;DHT22;55322;48.146;11.516;2022-12-18T10:36:38;-4.75;90.70
68378;DHT22;55322;48.146;11.516;2022-12-18T10:39:22;-4.70;91.21
68378;DHT22;55322;48.146;11.516;2022-12-18T10:41:48;-4.50;90.92
68378;DHT22;55322;48.146;11.516;2022-12-18T10:44:21;-4.48;90.52
68378;DHT22;55322;48.146;11.516;2022-12-18T10:46:49;-4.47;90.27
68378;DHT22;55322;48.146;11.516;2022-12-18T10:49:27;-4.72;91.04
68378;DHT22;55322;48.146;11.516;2022-12-18T10:52:16;-4.64;90.84
68378;DHT22;55322;48.146;11.516;2022-12-18T10:54:48;-4.51;90.78
68378;DHT22;55322;48.146;11.516;2022-12-18T10:57:35;-4.46;90.02
68378;DHT22;55322;48.146;11.516;2022-12-18T11:00:24;-4.33;89.47
68378;DHT22;55322;48.146;11.516;2022-12-18T11:02:51;-4.34;89.19
68378;DHT22;55322;48.146;11.516;2022-12-18T11:05:29;-4.27;89.05
68378;DHT22;55322;48.146;11.516;2022-12-18T11:07:57;-4.26;89.21
68378;DHT22;55322;48.146;11.516;2022-12-18T11:10:47;-4.48;89.56
68378;DHT22;55322;48.146;11.516;2022-12-18T11:13:16;-4.31;89.96
68378;DHT22;55322;48.146;11.516;2022-12-18T11:15:43;-4.10;89.45
68378;DHT22;55322;48.146;11.516;2022-12-18T11:20:53;-4.33;89.09
68378;DHT22;55322;48.146;11.516;2022-12-18T11:23:19;-4.38;88.90
68378;DHT22;55322;48.146;11.516;2022-12-18T11:25:58;-4.65;89.73
68378;DHT22;55322;48.146;11.516;2022-12-18T11:29:07;-4.48;90.11
68378;DHT22;55322;48.146;11.516;2022-12-18T11:31:32;-4.36;89.85
68378;DHT22;55322;48.146;11.516;2022-12-18T11:34:06;-4.51;89.84
68378;DHT22;55322;48.146;11.516;2022-12-18T11:36:44;-4.28;89.53
68378;DHT22;55322;48.146;11.516;2022-12-18T11:39:17;-4.57;89.25
68378;DHT22;55322;48.146;11.516;2022-12-18T11:47:24;-4.62;90.42
68378;DHT22;55322;48.146;11.516;2022-12-18T11:49:52;-4.31;90.52
68378;DHT22;55322;48.146;11.516;2022-12-18T11:52:33;-4.17;89.75
68378;DHT22;55322;48.146;11.516;2022-12-18T11:55:09;-4.16;89.15
68378;DHT22;55322;48.146;11.516;2022-12-18T12:00:19;-4.21;89.75
68378;DHT22;55322;48.146;11.516;2022-12-18T12:10:55;-4.27;91.11
68378;DHT22;55322;48.146;11.516;2022-12-18T12:21:42;-4.21;90.68
68378;DHT22;55322;48.146;11.516;2022-12-18T12:27:14;-4.23;89.96
68378;DHT22;55322;48.146;11.516;2022-12-18T12:35:44;-4.24;90.01
68378;DHT22;55322;48.146;11.516;2022-12-18T12:38:24;-4.28;90.84
68378;DHT22;55322;48.146;11.516;2022-12-18T12:41:01;-4.18;90.31
68378;DHT22;55322;48.146;11.516;2022-12-18T12:43:38;-4.20;90.54
68378;DHT22;55322;48.146;11.516;2022-12-18T12:46:08;-4.17;90.59
68378;DHT22;55322;48.146;11.516;2022-12-18T12:48:44;-4.23;90.76
68378;DHT22;55322;48.146;11.516;2022-12-18T12:51:22;-4.17;91.19
68378;DHT22;55322;48.146;11.516;2022-12-18T12:53:49;-4.33;89.44
68378;DHT22;55322;48.146;11.516;2022-12-18T12:56:17;-4.24;90.56
68378;DHT22;55322;48.146;11.516;2022-12-18T12:59:05;-4.21;89.94
68378;DHT22;55322;48.146;11.516;2022-12-18T13:01:43;-4.18;90.71
68378;DHT22;55322;48.146;11.516;2022-12-18T13:07:03;-4.14;89.62
68378;DHT22;55322;48.146;11.516;2022-12-18T13:09:33;-4.20;89.54
68378;DHT22;55322;48.146;11.516;2022-12-18T13:12:11;-4.16;89.88
68378;DHT22;55322;48.146;11.516;2022-12-18T13:15:12;-4.14;89.64
68378;DHT22;55322;48.146;11.516;2022-12-18T13:17:38;-4.14;89.05
68378;DHT22;55322;48.146;11.516;2022-12-18T13:22:34;-4.28;90.00
68378;DHT22;55322;48.146;11.516;2022-12-18T13:24:59;-4.24;90.14
68378;DHT22;55322;48.146;11.516;2022-12-18T13:27:59;-4.41;89.36
68378;DHT22;55322;48.146;11.516;2022-12-18T13:36:00;-4.43;89.85
68378;DHT22;55322;48.146;11.516;2022-12-18T13:38:34;-4.37;90.77
68378;DHT22;55322;48.146;11.516;2022-12-18T13:43:46;-4.53;89.66
68378;DHT22;55322;48.146;11.516;2022-12-18T13:49:05;-4.84;91.20
68378;DHT22;55322;48.146;11.516;2022-12-18T13:51:32;-4.78;91.48
68378;DHT22;55322;48.146;11.516;2022-12-18T13:54:01;-4.72;92.16
68378;DHT22;55322;48.146;11.516;2022-12-18T13:56:32;-4.60;92.37
68378;DHT22;55322;48.146;11.516;2022-12-18T14:06:51;-4.68;92.12
68378;DHT22;55322;48.146;11.516;2022-12-18T14:09:24;-4.80;91.99
68378;DHT22;55322;48.146;11.516;2022-12-18T14:11:51;-4.81;92.55
68378;DHT22;55322;48.146;11.516;2022-12-18T14:14:18;-4.75;92.29
68378;DHT22;55322;48.146;11.516;2022-12-18T14:16:45;-4.68;92.56
68378;DHT22;55322;48.146;11.516;2022-12-18T14:19:15;-4.61;92.07
68378;DHT22;55322;48.146;11.516;2022-12-18T14:21:49;-4.80;92.02
68378;DHT22;55322;48.146;11.516;2022-12-18T14:24:18;-4.75;92.41
68378;DHT22;55322;48.146;11.516;2022-12-18T14:26:44;-4.72;93.01
68378;DHT22;55322;48.146;11.516;2022-12-18T14:29:26;-4.62;92.56
68378;DHT22;55322;48.146;11.516;2022-12-18T14:34:36;-4.80;92.11
68378;DHT22;55322;48.146;11.516;2022-12-18T14:37:01;-4.81;92.70
68378;DHT22;55322;48.146;11.516;2022-12-18T14:39:27;-4.81;92.72
68378;DHT22;55322;48.146;11.516;2022-12-18T14:41:52;-4.80;92.80
68378;DHT22;55322;48.146;11.516;2022-12-18T14:44:18;-4.85;92.27
68378;DHT22;55322;48.146;11.516;2022-12-18T14:46:45;-4.91;92.97
68378;DHT22;55322;48.146;11.516;2022-12-18T14:49:30;-4.91;93.16
68378;DHT22;55322;48.146;11.516;2022-12-18T14:52:04;-4.87;93.44
68378;DHT22;55322;48.146;11.516;2022-12-18T14:54:31;-4.87;93.61
68378;DHT22;55322;48.146;11.516;2022-12-18T14:59:26;-4.91;93.59
68378;DHT22;55322;48.146;11.516;2022-12-18T15:04:36;-4.92;93.63
68378;DHT22;55322;48.146;11.516;2022-12-18T15:07:20;-4.93;93.72
68378;DHT22;55322;48.146;11.516;2022-12-18T15:10:13;-4.81;94.02
68378;DHT22;55322;48.146;11.516;2022-12-18T15:13:07;-4.81;93.51
68378;DHT22;55322;48.146;11.516;2022-12-18T15:20:40;-4.81;93.80
68378;DHT22;55322;48.146;11.516;2022-12-18T15:23:31;-4.85;93.63
68378;DHT22;55322;48.146;11.516;2022-12-18T15:26:07;-4.92;93.94
68378;DHT22;55322;48.146;11.516;2022-12-18T15:28:55;-4.95;94.04
68378;DHT22;55322;48.146;11.516;2022-12-18T15:31:24;-4.93;94.14
68378;DHT22;55322;48.146;11.516;2022-12-18T15:36:20;-4.82;94.28
68378;DHT22;55322;48.146;11.516;2022-12-18T15:38:53;-4.80;94.31
68378;DHT22;55322;48.146;11.516;2022-12-18T15:41:20;-5.11;94.14
68378;DHT22;55322;48.146;11.516;2022-12-18T15:43:47;-5.03;94.33
68378;DHT22;55322;48.146;11.516;2022-12-18T15:46:15;-5.26;95.06
68378;DHT22;55322;48.146;11.516;2022-12-18T15:48:49;-5.19;95.32
68378;DHT22;55322;48.146;11.516;2022-12-18T15:51:26;-5.20;95.43
68378;DHT22;55322;48.146;11.516;2022-12-18T15:53:54;-5.25;95.34
68378;DHT22;55322;48.146;11.516;2022-12-18T15:56:20;-5.23;95.52
68378;DHT22;55322;48.146;11.516;2022-12-18T15:59:13;-5.29;95.41
68378;DHT22;55322;48.146;11.516;2022-12-18T16:01:39;-5.27;95.50
68378;DHT22;55322;48.146;11.516;2022-12-18T16:04:05;-5.26;95.69
68378;DHT22;55322;48.146;11.516;2022-12-18T16:06:31;-5.20;95.80
68378;DHT22;55322;48.146;11.516;2022-12-18T16:08:56;-5.13;95.32
68378;DHT22;55322;48.146;11.516;2022-12-18T16:11:29;-5.15;95.35
68378;DHT22;55322;48.146;11.516;2022-12-18T16:16:47;-5.13;95.12
68378;DHT22;55322;48.146;11.516;2022-12-18T16:19:12;-5.17;95.10
68378;DHT22;55322;48.146;11.516;2022-12-18T16:21:38;-5.13;95.05
68378;DHT22;55322;48.146;11.516;2022-12-18T16:24:03;-5.37;94.52
68378;DHT22;55322;48.146;11.516;2022-12-18T16:26:32;-5.32;95.05
68378;DHT22;55322;48.146;11.516;2022-12-18T16:28:57;-5.29;94.27
68378;DHT22;55322;48.146;11.516;2022-12-18T16:31:22;-5.32;94.37
68378;DHT22;55322;48.146;11.516;2022-12-18T16:33:49;-5.32;94.56
68378;DHT22;55322;48.146;11.516;2022-12-18T16:36:14;-5.36;94.45
68378;DHT22;55322;48.146;11.516;2022-12-18T16:38:39;-5.33;94.76
68378;DHT22;55322;48.146;11.516;2022-12-18T16:41:17;-5.35;95.14
68378;DHT22;55322;48.146;11.516;2022-12-18T16:43:59;-5.27;95.24
68378;DHT22;55322;48.146;11.516;2022-12-18T16:46:24;-5.32;94.76
68378;DHT22;55322;48.146;11.516;2022-12-18T16:48:50;-5.33;95.37
68378;DHT22;55322;48.146;11.516;2022-12-18T16:51:15;-5.33;94.93
68378;DHT22;55322;48.146;11.516;2022-12-18T16:53:40;-5.29;94.84
68378;DHT22;55322;48.146;11.516;2022-12-18T16:56:06;-5.23;94.94
68378;DHT22;55322;48.146;11.516;2022-12-18T16:58:31;-5.19;95.38
68378;DHT22;55322;48.146;11.516;2022-12-18T17:00:57;-5.19;95.02
68378;DHT22;55322;48.146;11.516;2022-12-18T17:03:22;-5.25;94.84
68378;DHT22;55322;48.146;11.516;2022-12-18T17:05:47;-5.30;94.99
68378;DHT22;55322;48.146;11.516;2022-12-18T17:08:13;-5.29;95.10
68378;DHT22;55322;48.146;11.516;2022-12-18T17:10:38;-5.23;94.88
68378;DHT22;55322;48.146;11.516;2022-12-18T17:13:03;-5.20;94.83
68378;DHT22;55322;48.146;11.516;2022-12-18T17:15:28;-5.32;94.66
68378;DHT22;55322;48.146;11.516;2022-12-18T17:17:54;-5.29;95.53
68378;DHT22;55322;48.146;11.516;2022-12-18T17:20:19;-5.29;95.55